Wayne, NE

7:03 AM CST on January 25, 2015 (GMT -0600)
Courthouse Hill | Change Station
CLOSE
Current Station
Personal Weather Station
Location: Wayne, NE
Elevation: 1512 ft
Nearby Weather Stations

Elev 1512 ft 42.23 °N, 97.02 °W | Updated 6 seconds ago

Overcast
Overcast
32.2 °F
Feels Like 23 °F
N
13.0
Wind Variable Wind from West
Gusts 17.4 mph

Today
High -- | Low -- °F
--% Chance of Precip.
Yesterday
High -- | Low -- °F
Precip. -- in
7:47 AM 5:33 PM
Waxing Crescent, 32% visible
Pressure 29.87 in
Visibility 10.0 miles
Clouds Overcast 900 ft
Windchill 23 °F
Dew Point 30 °F
Humidity 90%
Rainfall 0.00 in
Snow Depth Not available.
UV 0 out of 12
Pollen .10 out of 12
Air Quality Not available.
Flu Activity Not available.
METAR KLCG 251255Z AUTO 34018G25KT 10SM OVC009 01/00 A2987 RMK AO2 T00061002

More Conditions Fewer Conditions

Pressure 29.87 in
Visibility 10.0 miles
Clouds Overcast 900 ft
Windchill 23 °F
Dew Point 30 °F
Humidity 90%
Rainfall 0.00 in
Snow Depth Not available.
UV 0 out of 12
Pollen .10 out of 12
Air Quality Not available.
Flu Activity Not available.
METAR KLCG 251255Z AUTO 34018G25KT 10SM OVC009 01/00 A2987 RMK AO2 T00061002

More Conditions Fewer Conditions

10-Day Weather Forecast

Almanac

Astronomy

Jan. 25, 2015 Rise Set
Actual Time
Civil Twilight
Nautical Twilight
Astronomical Twilight
Moon
Length of Visible Light
Length of Day
Tomorrow will be .
, % of the Moon is Illuminated

Today's Extremes

State Highs State Lows

Community

WunderPhotos

Upload Photos

1,789,876 photos uploaded!

WunderBlogs® & News

Nearby

Air Quality

  Air Quality AQ Index Pollutant
Not available.

Snow Depth

Station Depth Elevation

Earthquake Activity

City Distance Mag. Time & Date
Minimum magnitude displayed is 2.5.

Coastal Water Temperatures

Place Temperature

Nearby Weather Stations